Dwight, North Dakota
Current Conditions -  °F | °C
As of 2:35 PM on Saturday 20 Dec 2014 (Local Time) from KBWP Reporting Station
Overcast Overcast  
Wind Chill: 23°   Ceiling: 700
Heat Index: 32°   Visibility: 5mi
Dew Point: 28°   Wind: 13mph
Humidity: 87%   Direction: 150°SSE
Pressure: 29.98"   Gusts: NA
Location:  46.3099°N, 96.7867°W
Report Text: KBWP 202035Z AUTO 15011KT 5SM OVC007 00/M02 A2998 RMK AO1
Loading
Personal Weather Stations






























Interactive Weather Map New forecast layout! Learn more

10-Day Weather Forecast

Advertisements
Track Severe Weather on mobile